Gateway, Arkansas
Current Conditions -  °F | °C
As of 9:57 PM on Tuesday 21 Oct 2014 (Local Time) from KROG Reporting Station
Clear Clear  
Wind Chill: 14°   Ceiling: Unl
Heat Index: 14°   Visibility: 10mi
Dew Point: 12°   Wind: 7mph
Humidity: 87%   Direction: 110°ESE
Pressure: 30.13"   Gusts: NA
Location:  36.49°N, 93.93°W
Report Text: KROG 220257Z AUTO 11006KT 10SM CLR 14/12 A3013 RMK AO2 SLP200 T01440122 53017
Loading
Personal Weather Stations






























Interactive Weather Map
Tropical Storm Tracking
New forecast layout! Learn more

10-Day Weather Forecast

Advertisements
Track Severe Weather on mobile